createdAt,value
2018-02-09T00:05:08.139Z,34.07
2018-02-09T00:10:36.282Z,32.07
2018-02-09T00:16:05.494Z,33.00
2018-02-09T00:21:33.645Z,32.13
2018-02-09T00:27:02.591Z,33.07
2018-02-09T00:32:30.831Z,34.40
2018-02-09T00:37:58.968Z,32.30
2018-02-09T00:43:27.130Z,34.67
2018-02-09T00:48:55.280Z,35.50
2018-02-09T00:54:23.438Z,32.43
2018-02-09T00:59:51.590Z,31.00
2018-02-09T01:05:19.734Z,32.43
2018-02-09T01:10:47.884Z,32.20
2018-02-09T01:16:16.027Z,32.57
2018-02-09T01:21:44.188Z,30.60
2018-02-09T01:27:13.102Z,30.83
2018-02-09T01:32:41.246Z,34.00
2018-02-09T01:38:09.376Z,32.37
2018-02-09T01:43:37.509Z,31.07
2018-02-09T01:49:05.647Z,29.60
2018-02-09T01:54:33.813Z,26.17
2018-02-09T02:00:03.044Z,29.17
2018-02-09T02:05:32.023Z,30.07
2018-02-09T02:11:00.349Z,30.87
2018-02-09T02:16:28.482Z,32.50
2018-02-09T02:21:56.611Z,30.63
2018-02-09T02:27:24.748Z,28.77
2018-02-09T02:32:52.894Z,32.50
2018-02-09T02:38:21.841Z,27.67
2018-02-09T02:43:49.997Z,29.80
2018-02-09T02:49:18.154Z,29.27
2018-02-09T02:54:46.280Z,30.90
2018-02-09T03:00:14.432Z,29.10
2018-02-09T03:05:42.581Z,30.97
2018-02-09T03:11:10.720Z,31.83
2018-02-09T03:16:39.089Z,30.47
2018-02-09T03:22:07.998Z,30.40
2018-02-09T03:27:36.134Z,31.53
2018-02-09T03:33:05.074Z,30.93
2018-02-09T03:38:34.026Z,29.17
2018-02-09T03:44:02.237Z,27.80
2018-02-09T03:49:30.406Z,29.00
2018-02-09T03:54:58.598Z,31.17
2018-02-09T04:00:26.787Z,29.27
2018-02-09T04:05:55.073Z,32.17
2018-02-09T04:11:23.224Z,30.97
2018-02-09T04:16:52.134Z,30.73
2018-02-09T04:22:20.282Z,32.50
2018-02-09T04:27:48.422Z,29.20
2018-02-09T04:33:16.558Z,31.37
2018-02-09T04:38:44.711Z,32.70
2018-02-09T04:44:12.842Z,31.40
2018-02-09T04:49:40.979Z,29.67
2018-02-09T04:55:09.897Z,32.40
2018-02-09T05:00:38.038Z,33.30
2018-02-09T05:06:06.938Z,33.17
2018-02-09T05:11:35.132Z,34.17
2018-02-09T05:17:03.429Z,31.43
2018-02-09T05:22:32.401Z,34.83
2018-02-09T05:28:00.630Z,33.00
2018-02-09T05:33:29.544Z,30.80
2018-02-09T05:38:57.700Z,33.87
2018-02-09T05:44:25.862Z,33.53
2018-02-09T05:49:54.836Z,33.17
2018-02-09T05:55:22.986Z,34.83
2018-02-09T06:00:51.142Z,34.63
2018-02-09T06:06:19.307Z,34.90
2018-02-09T06:11:47.493Z,35.60
2018-02-09T06:17:16.416Z,34.70
2018-02-09T06:22:44.564Z,34.27
2018-02-09T06:28:13.483Z,33.90
2018-02-09T06:33:41.629Z,32.90
2018-02-09T06:39:10.573Z,31.40
2018-02-09T06:44:38.725Z,35.00
2018-02-09T06:50:07.026Z,32.13
2018-02-09T06:55:35.179Z,32.03
2018-02-09T07:01:03.386Z,34.70
2018-02-09T07:06:31.711Z,35.10
2018-02-09T07:12:00.013Z,30.97
2018-02-09T07:17:28.161Z,31.87
2018-02-09T07:22:56.344Z,33.73
2018-02-09T07:28:24.499Z,32.10
2018-02-09T07:33:52.650Z,33.00
2018-02-09T07:39:20.822Z,29.30
2018-02-09T07:44:48.960Z,23.97
2018-02-09T07:50:17.110Z,29.50
2018-02-09T07:55:45.304Z,31.00
2018-02-09T08:01:13.454Z,30.57
2018-02-09T08:06:41.634Z,32.00
2018-02-09T08:12:09.835Z,32.87
2018-02-09T08:17:38.055Z,34.77
2018-02-09T08:23:06.212Z,36.63
2018-02-09T08:28:34.400Z,29.43
2018-02-09T08:34:02.592Z,23.80
2018-02-09T08:39:30.786Z,27.90
2018-02-09T08:44:58.945Z,26.80
2018-02-09T08:50:27.081Z,29.50
2018-02-09T08:55:55.220Z,19.63
2018-02-09T09:01:23.386Z,19.63
2018-02-09T09:06:52.321Z,23.33
2018-02-09T09:12:21.216Z,22.60
2018-02-09T09:17:49.341Z,20.80
2018-02-09T09:23:17.494Z,19.83
2018-02-09T09:28:46.407Z,22.33
2018-02-09T09:34:14.564Z,21.43
2018-02-09T09:39:43.497Z,21.77
2018-02-09T09:45:11.670Z,23.30
2018-02-09T09:50:39.826Z,22.27
2018-02-09T09:56:07.969Z,24.50
2018-02-09T10:01:36.105Z,21.20
2018-02-09T10:07:04.522Z,22.23
2018-02-09T10:12:32.686Z,25.27
2018-02-09T10:18:00.884Z,22.40
2018-02-09T10:23:29.042Z,25.50
2018-02-09T10:28:57.195Z,21.67
2018-02-09T10:34:25.321Z,21.37
2018-02-09T10:39:53.450Z,19.67
2018-02-09T10:45:21.597Z,21.27
2018-02-09T10:50:49.768Z,21.40
2018-02-09T10:56:17.893Z,22.70
2018-02-09T11:01:46.069Z,21.80
2018-02-09T11:07:14.235Z,21.80
2018-02-09T11:12:43.333Z,23.53
2018-02-09T11:18:11.546Z,24.27
2018-02-09T11:23:39.720Z,20.77
2018-02-09T11:29:07.847Z,25.47
2018-02-09T11:34:36.006Z,24.50
2018-02-09T11:40:04.218Z,25.83
2018-02-09T11:45:32.343Z,25.17
2018-02-09T11:51:00.512Z,26.53
2018-02-09T11:56:28.677Z,27.43
2018-02-09T12:01:56.851Z,26.73
2018-02-09T12:07:25.737Z,26.37
2018-02-09T12:12:53.886Z,27.00
2018-02-09T12:18:22.824Z,26.30
2018-02-09T12:23:51.946Z,25.60
2018-02-09T12:29:20.112Z,29.33
2018-02-09T12:34:48.220Z,25.30
2018-02-09T12:40:17.108Z,24.77
2018-02-09T12:45:49.052Z,27.00
2018-02-09T12:51:17.199Z,29.23
2018-02-09T12:56:45.347Z,29.87
2018-02-09T13:02:13.753Z,31.23
2018-02-09T13:07:42.030Z,29.50
2018-02-09T13:13:12.257Z,30.33
2018-02-09T13:18:49.072Z,31.50
2018-02-09T13:24:25.697Z,29.37
2018-02-09T13:29:53.855Z,31.67
2018-02-09T13:35:21.980Z,28.83
2018-02-09T13:40:50.118Z,27.97
2018-02-09T13:46:19.096Z,26.67
2018-02-09T13:51:47.288Z,27.37
2018-02-09T13:57:15.530Z,31.77
2018-02-09T14:02:43.806Z,29.20
2018-02-09T14:08:16.190Z,29.60
2018-02-09T14:13:44.376Z,27.33
2018-02-09T14:19:12.551Z,29.87
2018-02-09T14:24:40.703Z,30.37
2018-02-09T14:30:09.614Z,27.83
2018-02-09T14:35:37.750Z,26.90
2018-02-09T14:41:06.585Z,26.10
2018-02-09T14:46:34.782Z,27.70
2018-02-09T14:52:02.934Z,29.20
2018-02-09T14:57:31.166Z,29.07
2018-02-09T15:03:00.312Z,26.73
2018-02-09T15:08:29.586Z,28.90
2018-02-09T15:13:57.736Z,25.10
2018-02-09T15:19:25.909Z,25.80
2018-02-09T15:24:54.052Z,29.13
2018-02-09T15:30:22.256Z,28.67
2018-02-09T15:35:50.419Z,25.87
2018-02-09T15:41:18.589Z,27.33
2018-02-09T15:46:46.744Z,27.90
2018-02-09T15:52:14.921Z,27.00
2018-02-09T15:57:43.073Z,26.00
2018-02-09T16:03:11.224Z,24.10
2018-02-09T16:08:39.359Z,22.50
2018-02-09T16:14:08.262Z,21.40
2018-02-09T16:19:36.409Z,24.17
2018-02-09T16:25:05.391Z,24.60
2018-02-09T16:30:33.767Z,26.90
2018-02-09T16:36:01.957Z,23.37
2018-02-09T16:41:30.237Z,25.00
2018-02-09T16:46:58.389Z,29.17
2018-02-09T16:52:26.531Z,24.90
2018-02-09T16:57:54.678Z,26.20
2018-02-09T17:03:23.617Z,24.63
2018-02-09T17:08:52.642Z,25.40
2018-02-09T17:14:21.974Z,25.83
2018-02-09T17:19:51.147Z,24.87
2018-02-09T17:25:20.082Z,23.70
2018-02-09T17:30:49.007Z,24.33
2018-02-09T17:36:18.001Z,23.47
2018-02-09T17:41:46.169Z,23.60
2018-02-09T17:47:15.088Z,26.57
2018-02-09T17:52:43.257Z,23.13
2018-02-09T17:58:11.418Z,23.63
2018-02-09T18:03:39.717Z,24.63
2018-02-09T18:09:07.870Z,27.27
2018-02-09T18:14:36.035Z,24.17
2018-02-09T18:20:04.685Z,25.50
2018-02-09T18:25:32.900Z,26.50
2018-02-09T18:31:01.807Z,27.73
2018-02-09T18:36:30.742Z,25.70
2018-02-09T18:41:59.704Z,26.57
2018-02-09T18:47:27.911Z,24.13
2018-02-09T18:52:56.859Z,24.80
2018-02-09T18:58:25.020Z,26.20
2018-02-09T19:03:54.557Z,24.13
2018-02-09T19:09:22.763Z,27.90
2018-02-09T19:14:50.981Z,24.10
2018-02-09T19:20:19.167Z,25.83
2018-02-09T19:25:47.313Z,27.27
2018-02-09T19:31:16.229Z,27.70
2018-02-09T19:36:45.347Z,25.10
2018-02-09T19:42:14.459Z,25.77
2018-02-09T19:47:42.712Z,26.20
2018-02-09T19:53:11.669Z,26.43
2018-02-09T19:58:40.181Z,26.93
2018-02-09T20:04:08.363Z,29.33
2018-02-09T20:09:36.756Z,24.53
2018-02-09T20:15:05.181Z,26.17
2018-02-09T20:20:35.358Z,25.27
2018-02-09T20:26:03.617Z,26.93
2018-02-09T20:31:31.827Z,25.63
2018-02-09T20:37:06.473Z,27.70
2018-02-09T20:42:34.778Z,27.57
2018-02-09T20:48:04.168Z,27.50
2018-02-09T20:53:32.440Z,26.83
2018-02-09T20:59:01.713Z,25.67
2018-02-09T21:04:29.985Z,27.00
2018-02-09T21:09:58.142Z,27.07
2018-02-09T21:15:29.640Z,27.03
2018-02-09T21:20:58.564Z,24.77
2018-02-09T21:26:26.706Z,25.93
2018-02-09T21:31:55.638Z,24.40
2018-02-09T21:37:24.751Z,27.80
2018-02-09T21:42:53.726Z,25.80
2018-02-09T21:48:21.858Z,26.30
2018-02-09T21:53:50.786Z,25.30
2018-02-09T21:59:19.710Z,25.80
2018-02-09T22:04:47.878Z,24.87
2018-02-09T22:10:16.029Z,26.17
2018-02-09T22:15:44.200Z,24.77
2018-02-09T22:21:12.365Z,24.03
2018-02-09T22:26:40.526Z,24.00
2018-02-09T22:32:08.698Z,25.17
2018-02-09T22:37:36.941Z,25.93
2018-02-09T22:43:05.202Z,20.47
2018-02-09T22:48:33.369Z,22.17
2018-02-09T22:54:01.569Z,20.07
2018-02-09T22:59:29.712Z,21.67
2018-02-09T23:04:57.993Z,20.07
2018-02-09T23:10:27.319Z,21.20
2018-02-09T23:15:56.470Z,21.63
2018-02-09T23:21:25.394Z,18.67
2018-02-09T23:26:54.320Z,21.93
2018-02-09T23:32:22.466Z,20.80
2018-02-09T23:37:50.623Z,20.40
2018-02-09T23:43:18.787Z,19.93
2018-02-09T23:48:47.741Z,20.20
2018-02-09T23:54:15.937Z,20.80
2018-02-09T23:59:44.077Z,21.40
